Time;durP1;ratioP1;P1;durP2;ratioP2;P2;SDS_P1;SDS_P2;PMS_P1;PMS_P2;Temp;Humidity;BMP_temperature;BMP_pressure;BME280_temperature;BME280_humidity;BME280_pressure;Samples;Min_cycle;Max_cycle;Signal;HPM_P1;HPM_P2
2022/10/10 00:00:47;;;;;;;6.07;2.40;;;;;;;4.43;100.00;101524.44;4963308;28;20045;-84
2022/10/10 00:03:14;;;;;;;2.57;1.93;;;;;;;4.36;100.00;101516.47;4921281;29;20043;-82
2022/10/10 00:05:41;;;;;;;5.33;2.23;;;;;;;4.33;100.00;101514.69;4957823;28;20073;-83
2022/10/10 00:08:09;;;;;;;6.80;1.90;;;;;;;4.49;100.00;101518.47;4933736;28;20069;-83
2022/10/10 00:10:36;;;;;;;4.23;1.60;;;;;;;4.37;100.00;101523.44;4962607;28;20042;-84
2022/10/10 00:13:03;;;;;;;4.83;2.17;;;;;;;4.31;100.00;101516.38;4919262;29;20548;-83
2022/10/10 00:15:30;;;;;;;4.27;1.97;;;;;;;4.33;100.00;101519.91;4959376;28;20054;-82
2022/10/10 00:17:57;;;;;;;10.13;2.30;;;;;;;4.32;100.00;101509.41;4960025;28;20046;-84
2022/10/10 00:20:23;;;;;;;8.53;2.17;;;;;;;4.32;100.00;101512.03;4975810;28;20046;-84
2022/10/10 00:22:50;;;;;;;3.77;2.27;;;;;;;4.23;100.00;101507.50;4945623;28;20046;-82
2022/10/10 00:25:18;;;;;;;9.70;2.57;;;;;;;4.36;100.00;101506.00;4954639;28;20500;-82
2022/10/10 00:27:44;;;;;;;3.50;2.10;;;;;;;4.28;100.00;101499.75;4911936;29;20039;-82
2022/10/10 00:30:11;;;;;;;7.70;2.83;;;;;;;4.29;100.00;101502.41;4970515;28;20038;-83
2022/10/10 00:32:38;;;;;;;8.03;2.07;;;;;;;4.36;100.00;101492.91;4959600;28;20087;-84
2022/10/10 00:35:05;;;;;;;5.97;2.57;;;;;;;4.30;100.00;101491.09;4959139;28;20050;-82
2022/10/10 00:37:32;;;;;;;4.13;2.33;;;;;;;4.30;100.00;101484.97;4959115;28;20049;-85
2022/10/10 00:39:58;;;;;;;4.37;2.00;;;;;;;4.33;100.00;101483.28;4955502;28;20050;-83
2022/10/10 00:42:25;;;;;;;4.30;1.90;;;;;;;4.40;100.00;101477.31;4963519;28;20043;-83
2022/10/10 00:45:21;;;;;;;5.13;2.53;;;;;;;4.40;100.00;101477.31;4945625;28;20047;-80
2022/10/10 00:47:48;;;;;;;7.67;2.57;;;;;;;4.36;100.00;101472.88;4959181;28;20045;-79
2022/10/10 00:50:17;;;;;;;3.93;1.80;;;;;;;4.33;100.00;101469.31;4958062;28;20047;-80
2022/10/10 00:52:44;;;;;;;6.07;3.13;;;;;;;4.29;100.00;101476.25;4964283;28;20754;-80
2022/10/10 00:55:11;;;;;;;4.47;1.97;;;;;;;4.29;100.00;101471.03;4931309;28;20046;-81
2022/10/10 00:57:38;;;;;;;5.03;2.37;;;;;;;4.40;100.00;101466.84;4982253;28;20047;-81
2022/10/10 01:00:06;;;;;;;3.67;2.33;;;;;;;4.30;100.00;101464.06;4960887;28;20716;-81
2022/10/10 01:02:33;;;;;;;4.80;2.70;;;;;;;4.37;100.00;101452.81;4942588;28;20047;-81
2022/10/10 01:04:59;;;;;;;3.60;2.37;;;;;;;4.41;100.00;101452.91;4940798;28;20421;-81
2022/10/10 01:07:30;;;;;;;4.20;2.77;;;;;;;4.39;100.00;101456.38;4997751;28;20047;-81
2022/10/10 01:10:00;;;;;;;4.50;2.03;;;;;;;4.42;100.00;101454.66;4965486;28;20034;-79
2022/10/10 01:12:39;;;;;;;3.87;2.40;;;;;;;4.43;100.00;101445.09;4995421;28;20094;-80
2022/10/10 01:15:28;;;;;;;5.20;3.00;;;;;;;4.54;100.00;101440.94;4950047;28;20057;-79
2022/10/10 01:18:10;;;;;;;8.80;2.60;;;;;;;4.62;100.00;101441.03;4978356;28;20050;-80
2022/10/10 01:21:26;;;;;;;5.47;3.00;;;;;;;4.75;100.00;101435.16;4960102;28;20065;-80
2022/10/10 01:24:12;;;;;;;4.83;2.57;;;;;;;4.63;100.00;101435.84;4896767;29;20074;-80
2022/10/10 01:26:48;;;;;;;3.73;2.33;;;;;;;4.57;100.00;101430.50;4896331;29;20048;-81
2022/10/10 01:29:30;;;;;;;4.83;2.67;;;;;;;4.61;100.00;101429.69;4946588;28;20076;-79
2022/10/10 01:32:04;;;;;;;6.20;2.70;;;;;;;4.62;100.00;101428.81;4973504;28;20051;-79
2022/10/10 01:34:39;;;;;;;5.72;2.90;;;;;;;4.77;100.00;101415.97;4986255;28;20074;-80
2022/10/10 01:37:17;;;;;;;9.07;3.17;;;;;;;4.82;100.00;101413.44;4960685;28;20050;-79
2022/10/10 01:39:51;;;;;;;4.60;2.50;;;;;;;4.76;100.00;101410.72;4980295;28;20038;-81
2022/10/10 01:42:28;;;;;;;4.47;2.47;;;;;;;4.74;100.00;101405.47;4957245;28;20062;-79
2022/10/10 01:44:55;;;;;;;4.87;2.50;;;;;;;4.92;100.00;101397.00;4962908;28;20039;-81
2022/10/10 01:47:22;;;;;;;6.07;2.57;;;;;;;4.95;100.00;101402.28;4953769;28;20246;-79
2022/10/10 01:49:51;;;;;;;10.03;3.03;;;;;;;4.98;100.00;101397.09;4947306;28;20043;-79
2022/10/10 01:52:43;;;;;;;4.53;3.07;;;;;;;4.90;100.00;101398.72;4984223;28;20063;-78
2022/10/10 01:55:19;;;;;;;4.90;2.90;;;;;;;4.91;100.00;101392.63;4922791;28;20046;-80
2022/10/10 01:57:57;;;;;;;5.13;2.80;;;;;;;4.88;100.00;101387.38;4926063;28;20405;-79
2022/10/10 02:00:25;;;;;;;6.33;2.80;;;;;;;4.93;100.00;101388.28;4973806;28;20055;-79
2022/10/10 02:03:06;;;;;;;6.03;3.27;;;;;;;4.95;100.00;101386.56;4970589;28;20582;-80
2022/10/10 02:05:40;;;;;;;6.40;2.73;;;;;;;4.88;100.00;101374.28;4974352;28;20420;-79
2022/10/10 02:08:18;;;;;;;5.78;2.72;;;;;;;4.90;100.00;101377.78;4967860;28;20046;-79
2022/10/10 02:10:51;;;;;;;4.50;2.93;;;;;;;5.02;100.00;101382.28;4972376;28;20050;-79
2022/10/10 02:13:20;;;;;;;3.60;2.63;;;;;;;4.97;100.00;101379.63;4949348;28;20069;-80
2022/10/10 02:15:50;;;;;;;4.10;2.80;;;;;;;5.03;100.00;101376.19;4950692;28;20047;-80
2022/10/10 02:18:20;;;;;;;7.57;3.40;;;;;;;5.09;100.00;101376.28;4944452;28;20046;-79
2022/10/10 02:20:47;;;;;;;7.00;3.27;;;;;;;4.93;100.00;101371.69;4956980;28;20070;-80
2022/10/10 02:23:15;;;;;;;9.43;2.77;;;;;;;4.87;100.00;101362.00;4981495;28;20396;-79
2022/10/10 02:25:46;;;;;;;5.33;2.70;;;;;;;4.86;100.00;101360.25;4954202;28;20097;-79
2022/10/10 02:28:16;;;;;;;6.20;2.77;;;;;;;4.93;100.00;101356.00;4976962;28;20269;-79
2022/10/10 02:30:46;;;;;;;4.80;2.70;;;;;;;5.00;100.00;101363.94;4964285;28;20049;-79
2022/10/10 02:33:19;;;;;;;7.87;3.00;;;;;;;5.02;100.00;101354.38;4965701;28;20047;-79
2022/10/10 02:35:48;;;;;;;4.78;3.38;;;;;;;4.95;100.00;101344.66;4972198;28;20042;-83
2022/10/10 02:38:16;;;;;;;6.13;3.00;;;;;;;4.94;100.00;101340.28;4945097;28;20375;-79
2022/10/10 02:40:44;;;;;;;5.17;3.10;;;;;;;5.01;100.00;101339.53;4975535;28;20109;-80
2022/10/10 02:43:11;;;;;;;6.53;3.10;;;;;;;4.97;100.00;101336.84;4954459;28;20065;-78
2022/10/10 02:45:38;;;;;;;5.37;3.30;;;;;;;4.95;100.00;101342.03;4958762;28;20042;-80
2022/10/10 02:48:05;;;;;;;7.37;3.10;;;;;;;5.04;100.00;101341.28;4976473;28;20057;-79
2022/10/10 02:50:32;;;;;;;5.80;3.40;;;;;;;5.03;100.00;101340.41;4992108;28;20069;-79
2022/10/10 02:52:59;;;;;;;6.17;3.17;;;;;;;5.08;100.00;101341.38;4971955;23;20043;-77
2022/10/10 02:55:26;;;;;;;6.87;3.73;;;;;;;4.99;100.00;101337.75;4974849;28;20030;-77
2022/10/10 02:57:52;;;;;;;7.77;3.57;;;;;;;5.14;100.00;101323.97;4987106;28;20038;-77
2022/10/10 03:00:19;;;;;;;8.40;3.10;;;;;;;5.04;100.00;101336.06;4991804;28;20173;-75
2022/10/10 03:02:46;;;;;;;9.67;4.03;;;;;;;5.09;100.00;101324.78;4939977;28;20116;-77
2022/10/10 03:05:13;;;;;;;6.07;3.10;;;;;;;5.01;100.00;101321.19;4993913;28;20035;-76
2022/10/10 03:07:39;;;;;;;5.27;3.23;;;;;;;5.05;100.00;101320.38;4990797;28;20042;-77
2022/10/10 03:10:06;;;;;;;6.43;2.83;;;;;;;4.94;100.00;101321.97;4973035;28;20051;-76
2022/10/10 03:12:34;;;;;;;7.20;4.20;;;;;;;5.11;100.00;101316.06;4963293;28;20054;-76
2022/10/10 03:15:01;;;;;;;6.60;3.50;;;;;;;4.97;100.00;101322.03;4944916;29;20040;-78
2022/10/10 03:17:27;;;;;;;6.77;3.77;;;;;;;4.97;100.00;101322.03;4987915;28;20050;-76
2022/10/10 03:19:54;;;;;;;7.17;3.67;;;;;;;4.86;100.00;101317.50;4972373;28;20051;-76
2022/10/10 03:22:20;;;;;;;6.30;3.30;;;;;;;4.83;100.00;101314.84;4974505;28;20089;-78
2022/10/10 03:24:47;;;;;;;5.70;3.30;;;;;;;4.75;100.00;101317.34;4958716;28;20286;-76
2022/10/10 03:27:14;;;;;;;4.17;2.90;;;;;;;4.82;100.00;101313.97;4977889;28;20050;-77
2022/10/10 03:29:40;;;;;;;6.90;3.20;;;;;;;4.83;100.00;101302.63;4967792;28;20070;-76
2022/10/10 03:32:07;;;;;;;5.13;3.20;;;;;;;4.79;100.00;101300.81;4999746;28;20046;-78
2022/10/10 03:34:36;;;;;;;6.07;3.17;;;;;;;4.76;100.00;101295.53;4962382;28;20031;-76
2022/10/10 03:37:03;;;;;;;6.00;3.10;;;;;;;4.77;100.00;101302.53;4956333;28;20464;-77
2022/10/10 03:39:29;;;;;;;7.13;3.30;;;;;;;4.88;100.00;101293.09;4972524;28;20090;-76
2022/10/10 03:41:56;;;;;;;7.37;3.30;;;;;;;4.88;100.00;101290.50;4978841;28;20041;-76
2022/10/10 03:44:23;;;;;;;5.10;3.07;;;;;;;4.85;100.00;101285.19;4958478;28;20086;-77
2022/10/10 03:46:49;;;;;;;10.07;5.50;;;;;;;4.75;100.00;101293.78;4961633;28;20070;-77
2022/10/10 03:49:16;;;;;;;9.93;5.77;;;;;;;4.66;100.00;101285.81;4984156;28;20914;-76
2022/10/10 03:51:43;;;;;;;7.23;4.07;;;;;;;4.64;100.00;101277.06;4951734;28;20491;-77
2022/10/10 03:54:09;;;;;;;7.87;3.87;;;;;;;4.78;100.00;101278.13;4959679;28;20069;-75
2022/10/10 03:56:36;;;;;;;8.10;3.60;;;;;;;4.78;100.00;101270.25;4963057;28;20089;-75
2022/10/10 03:59:05;;;;;;;4.60;3.23;;;;;;;4.63;100.00;101272.72;4951185;28;20039;-77
2022/10/10 04:01:32;;;;;;;6.87;3.27;;;;;;;4.72;100.00;101275.44;4967151;28;20110;-77
2022/10/10 04:03:59;;;;;;;5.43;2.87;;;;;;;4.69;100.00;101272.75;4972402;28;20133;-78
2022/10/10 04:06:27;;;;;;;6.33;3.23;;;;;;;4.56;100.00;101271.72;4954048;28;20039;-76
2022/10/10 04:08:56;;;;;;;6.20;4.00;;;;;;;4.67;100.00;101267.50;4966590;28;20142;-78
2022/10/10 04:11:23;;;;;;;5.37;3.30;;;;;;;4.56;100.00;101263.88;4971230;28;20508;-76
2022/10/10 04:13:49;;;;;;;5.37;3.60;;;;;;;4.45;100.00;101260.22;4955373;28;20093;-77
2022/10/10 04:16:16;;;;;;;7.17;3.50;;;;;;;4.50;100.00;101256.81;4952446;28;20066;-76
2022/10/10 04:18:42;;;;;;;5.27;3.10;;;;;;;4.36;100.00;101260.97;4984130;28;20639;-78
2022/10/10 04:21:10;;;;;;;7.23;3.67;;;;;;;4.45;100.00;101258.47;4957996;28;20051;-77
2022/10/10 04:23:37;;;;;;;6.17;3.33;;;;;;;4.44;100.00;101259.34;4979620;28;20043;-77
2022/10/10 04:26:03;;;;;;;6.47;3.20;;;;;;;4.34;100.00;101254.84;4956191;28;20038;-76
2022/10/10 04:28:30;;;;;;;6.10;3.63;;;;;;;4.42;100.00;101249.72;4972672;28;20412;-77
2022/10/10 04:30:57;;;;;;;6.43;3.47;;;;;;;4.28;100.00;101239.06;4951757;28;20039;-77
2022/10/10 04:33:23;;;;;;;4.27;3.40;;;;;;;4.15;100.00;101239.75;4990615;28;20050;-77
2022/10/10 04:35:50;;;;;;;5.30;3.67;;;;;;;4.15;100.00;101231.91;4979593;28;20492;-77
2022/10/10 04:38:18;;;;;;;6.80;3.97;;;;;;;4.13;100.00;101226.66;4972445;28;20086;-78
2022/10/10 04:40:47;;;;;;;4.40;3.10;;;;;;;4.01;100.00;101223.84;4993185;28;20031;-77
2022/10/10 04:43:14;;;;;;;9.93;3.93;;;;;;;4.05;100.00;101230.00;4982866;28;20066;-77
2022/10/10 04:45:41;;;;;;;4.37;3.43;;;;;;;3.88;100.00;101217.56;4957066;28;20034;-77
2022/10/10 04:48:07;;;;;;;5.30;3.20;;;;;;;3.84;100.00;101215.75;4969232;28;20042;-77
2022/10/10 04:50:34;;;;;;;4.67;3.10;;;;;;;3.79;100.00;101206.97;4984787;28;20043;-76
2022/10/10 04:53:01;;;;;;;7.07;3.03;;;;;;;3.91;100.00;101206.25;4974121;28;20039;-77
2022/10/10 04:55:27;;;;;;;6.13;3.80;;;;;;;3.92;100.00;101203.66;4973973;28;20488;-76
2022/10/10 04:57:54;;;;;;;4.93;3.80;;;;;;;3.79;100.00;101198.25;4956348;28;20095;-76
2022/10/10 05:00:20;;;;;;;6.97;3.80;;;;;;;3.74;100.00;101198.16;4982384;28;20069;-76
2022/10/10 05:02:47;;;;;;;5.30;2.93;;;;;;;3.91;100.00;101196.69;4941321;28;20057;-78
2022/10/10 05:05:14;;;;;;;9.10;3.80;;;;;;;4.04;100.00;101191.66;4975724;28;20105;-76
2022/10/10 05:07:41;;;;;;;9.07;4.47;;;;;;;3.84;100.00;101191.34;4969557;28;20550;-77
2022/10/10 05:10:08;;;;;;;8.93;3.53;;;;;;;3.83;100.00;101192.19;4988166;28;20093;-77
2022/10/10 05:12:34;;;;;;;6.50;3.67;;;;;;;3.83;100.00;101185.22;4973503;28;20047;-75
2022/10/10 05:15:01;;;;;;;5.37;3.40;;;;;;;3.76;100.00;101178.16;4965075;28;20050;-77
2022/10/10 05:17:28;;;;;;;7.63;3.77;;;;;;;3.75;100.00;101170.28;4969489;28;20043;-78
2022/10/10 05:19:54;;;;;;;6.07;3.43;;;;;;;3.86;100.00;101160.88;4963004;28;20054;-76
2022/10/10 05:22:21;;;;;;;5.87;3.80;;;;;;;3.74;100.00;101163.31;4991888;28;20418;-77
2022/10/10 05:24:47;;;;;;;5.93;3.90;;;;;;;3.86;100.00;101164.34;4993661;28;20094;-77
2022/10/10 05:27:14;;;;;;;9.90;3.70;;;;;;;3.85;100.00;101157.38;4957617;28;20042;-78
2022/10/10 05:29:41;;;;;;;9.33;4.47;;;;;;;4.03;100.00;101150.66;4939970;28;20071;-76
2022/10/10 05:32:07;;;;;;;7.17;3.90;;;;;;;4.11;100.00;101154.25;4969026;28;20508;-77
2022/10/10 05:34:36;;;;;;;8.67;4.67;;;;;;;4.11;100.00;101143.78;4967822;28;20039;-76
2022/10/10 05:37:03;;;;;;;8.40;4.40;;;;;;;3.99;100.00;101148.88;4976711;28;20046;-77
2022/10/10 05:39:30;;;;;;;8.93;4.20;;;;;;;4.19;100.00;101150.00;4958016;28;20055;-77
2022/10/10 05:41:56;;;;;;;8.67;4.70;;;;;;;4.12;100.00;101148.16;4953736;28;20054;-77
2022/10/10 05:44:23;;;;;;;7.50;4.20;;;;;;;4.23;100.00;101136.13;4968695;28;20512;-75
2022/10/10 05:46:50;;;;;;;8.23;4.30;;;;;;;4.20;100.00;101144.81;4982801;28;20484;-78
2022/10/10 05:49:16;;;;;;;10.57;4.80;;;;;;;4.42;100.00;101132.88;4965882;28;20043;-77
2022/10/10 05:51:43;;;;;;;8.00;4.53;;;;;;;4.31;100.00;101136.22;4955248;28;20050;-77
2022/10/10 05:54:09;;;;;;;8.63;4.40;;;;;;;4.35;100.00;101130.16;4961267;28;20070;-76
2022/10/10 05:56:36;;;;;;;8.47;4.80;;;;;;;4.47;100.00;101122.47;4993558;28;20101;-77
2022/10/10 05:59:03;;;;;;;8.97;5.13;;;;;;;4.57;100.00;101120.84;4986729;28;20047;-77
2022/10/10 06:01:30;;;;;;;10.27;5.27;;;;;;;4.46;100.00;101125.97;4965302;28;20405;-77
2022/10/10 06:03:56;;;;;;;8.30;4.50;;;;;;;4.48;100.00;101112.03;4956137;28;20516;-76
2022/10/10 06:06:24;;;;;;;8.77;5.60;;;;;;;4.65;100.00;101100.88;4955740;28;20070;-78
2022/10/10 06:08:51;;;;;;;8.10;4.50;;;;;;;4.66;100.00;101095.66;4965429;28;20135;-77
2022/10/10 06:11:19;;;;;;;9.07;4.87;;;;;;;4.65;100.00;101091.28;4974503;28;20043;-76
2022/10/10 06:13:48;;;;;;;6.60;4.40;;;;;;;4.61;100.00;101099.94;4956310;28;20054;-76
2022/10/10 06:16:15;;;;;;;10.40;4.70;;;;;;;4.71;100.00;101103.56;4967585;28;20071;-77
2022/10/10 06:18:42;;;;;;;8.43;3.90;;;;;;;4.60;100.00;101106.03;4987695;28;20524;-77
2022/10/10 06:21:10;;;;;;;9.73;4.40;;;;;;;4.83;100.00;101102.78;4977393;28;20039;-76
2022/10/10 06:23:37;;;;;;;11.20;4.47;;;;;;;4.79;100.00;101096.63;4956105;28;20522;-77
2022/10/10 06:26:04;;;;;;;9.33;4.30;;;;;;;4.82;100.00;101096.69;4996771;28;20130;-76
2022/10/10 06:28:31;;;;;;;10.60;4.67;;;;;;;4.92;100.00;101097.66;4972014;28;20162;-76
2022/10/10 06:30:59;;;;;;;8.53;4.50;;;;;;;4.92;100.00;101097.66;4953650;28;20138;-76
2022/10/10 06:33:26;;;;;;;11.23;4.47;;;;;;;4.98;100.00;101097.72;4969089;28;20054;-77
2022/10/10 06:35:54;;;;;;;8.03;4.17;;;;;;;4.94;100.00;101099.41;4977304;28;20038;-77
2022/10/10 06:38:21;;;;;;;9.73;5.00;;;;;;;4.98;100.00;101109.06;4972871;28;20043;-78
2022/10/10 06:40:47;;;;;;;14.70;4.80;;;;;;;5.08;100.00;101115.25;4966272;28;20039;-78
2022/10/10 06:43:15;;;;;;;7.70;4.37;;;;;;;5.12;100.00;101118.75;4954052;28;20081;-77
2022/10/10 06:45:44;;;;;;;11.27;4.63;;;;;;;5.31;100.00;101112.84;4962997;28;20054;-78
2022/10/10 06:48:12;;;;;;;10.13;4.60;;;;;;;5.25;100.00;101112.78;4941696;28;20039;-78
2022/10/10 06:50:39;;;;;;;7.83;4.53;;;;;;;5.35;100.00;101119.84;4952546;28;20050;-78
2022/10/10 06:53:06;;;;;;;8.57;4.40;;;;;;;5.41;100.00;101113.78;4933999;29;20524;-78
2022/10/10 06:55:32;;;;;;;6.80;4.63;;;;;;;5.45;100.00;101111.19;4975604;28;20535;-79
2022/10/10 06:57:59;;;;;;;7.27;4.30;;;;;;;5.74;100.00;101108.78;4968046;28;20094;-77
2022/10/10 07:00:25;;;;;;;7.33;4.37;;;;;;;5.77;100.00;101114.03;4984395;28;20080;-78
2022/10/10 07:02:52;;;;;;;8.17;4.70;;;;;;;5.82;100.00;101112.34;4943079;28;20058;-78
2022/10/10 07:05:19;;;;;;;8.33;4.37;;;;;;;5.96;100.00;101112.44;4956005;28;20047;-78
2022/10/10 07:07:46;;;;;;;8.63;4.50;;;;;;;6.13;100.00;101110.78;4965970;28;20050;-78
2022/10/10 07:10:15;;;;;;;6.97;4.17;;;;;;;6.28;100.00;101101.22;4939350;28;20102;-77
2022/10/10 07:12:42;;;;;;;8.17;4.30;;;;;;;6.52;100.00;101096.06;4939358;28;20071;-79
2022/10/10 07:15:17;;;;;;;9.37;4.90;;;;;;;6.69;100.00;101096.13;4967188;28;20034;-76
2022/10/10 07:17:44;;;;;;;9.50;4.00;;;;;;;6.68;100.00;101095.25;4951343;28;20043;-78
2022/10/10 07:20:16;;;;;;;8.37;4.50;;;;;;;6.83;100.00;101096.16;4984301;28;20082;-79
2022/10/10 07:22:42;;;;;;;6.33;4.53;;;;;;;6.93;100.00;101092.66;4969452;28;20113;-77
2022/10/10 07:25:09;;;;;;;10.10;4.77;;;;;;;6.98;100.00;101093.56;4969346;28;20042;-77
2022/10/10 07:27:35;;;;;;;6.77;3.80;;;;;;;7.17;100.00;101084.81;4949465;28;20106;-78
2022/10/10 07:30:02;;;;;;;7.13;4.60;;;;;;;7.34;100.00;101090.06;4952290;28;20058;-77
2022/10/10 07:32:29;;;;;;;6.10;4.57;;;;;;;7.30;100.00;101083.91;4942923;29;20047;-78
2022/10/10 07:34:57;;;;;;;5.23;3.70;;;;;;;7.44;100.00;101076.03;4968703;28;20089;-77
2022/10/10 07:37:24;;;;;;;8.07;4.33;;;;;;;7.48;100.00;101075.16;4956534;28;20046;-77
2022/10/10 07:39:53;;;;;;;6.10;3.93;;;;;;;7.71;100.00;101072.47;4959724;28;20100;-77
2022/10/10 07:42:20;;;;;;;6.40;3.93;;;;;;;7.78;100.00;101068.94;4961215;28;20051;-76
2022/10/10 07:44:47;;;;;;;5.50;3.83;;;;;;;7.99;100.00;101065.41;4969405;28;20046;-77
2022/10/10 07:47:14;;;;;;;7.53;3.97;;;;;;;8.21;100.00;101066.16;4974422;28;20046;-77
2022/10/10 07:49:40;;;;;;;9.50;3.93;;;;;;;8.31;100.00;101054.72;4960476;28;20118;-77
2022/10/10 07:52:07;;;;;;;6.93;3.87;;;;;;;8.42;100.00;101047.69;4937605;28;20681;-77
2022/10/10 07:54:34;;;;;;;7.17;3.70;;;;;;;8.66;100.00;101057.19;4973666;28;20489;-78
2022/10/10 07:57:00;;;;;;;5.13;3.37;;;;;;;8.67;100.00;101055.44;4995810;28;20047;-78
2022/10/10 07:59:27;;;;;;;6.40;3.70;;;;;;;8.88;100.00;101052.66;4975370;28;20043;-77
2022/10/10 08:01:54;;;;;;;5.95;3.13;;;;;;;9.01;100.00;101046.41;4971555;28;20497;-78
2022/10/10 08:04:20;;;;;;;5.95;3.10;;;;;;;9.19;100.00;101037.47;4983999;28;20040;-77
2022/10/10 08:06:47;;;;;;;5.28;3.45;;;;;;;9.19;100.00;101036.59;4966215;28;20047;-78
2022/10/10 08:09:14;;;;;;;6.95;3.70;;;;;;;9.21;100.00;101034.81;4992514;28;20086;-77
2022/10/10 08:11:41;;;;;;;6.93;3.25;;;;;;;9.29;100.00;101025.06;4975602;28;20483;-77
2022/10/10 08:14:07;;;;;;;6.78;3.10;;;;;;;9.25;98.44;101024.25;4975496;28;20062;-77
2022/10/10 08:16:34;;;;;;;5.68;3.38;;;;;;;9.47;99.79;101022.25;4972740;28;20038;-77
2022/10/10 08:19:01;;;;;;;5.85;4.38;;;;;;;9.46;99.41;101017.88;4972651;28;20459;-77
2022/10/10 08:21:28;;;;;;;5.18;3.47;;;;;;;9.50;100.00;101022.25;4966706;28;20047;-77
2022/10/10 08:23:54;;;;;;;7.32;3.08;;;;;;;9.56;97.70;101024.78;4971020;28;20093;-78
2022/10/10 08:26:21;;;;;;;6.45;3.45;;;;;;;9.52;100.00;101016.94;4978900;28;20035;-77
2022/10/10 08:28:48;;;;;;;5.90;3.33;;;;;;;9.67;97.53;101018.53;4985132;28;20047;-77
2022/10/10 08:31:17;;;;;;;6.32;3.85;;;;;;;9.66;100.00;101022.91;4958914;28;20507;-77
2022/10/10 08:33:45;;;;;;;4.53;3.33;;;;;;;9.70;99.88;101021.16;4959214;28;20039;-78
2022/10/10 08:36:14;;;;;;;6.68;3.20;;;;;;;9.90;96.04;101023.53;4977538;28;20050;-77
2022/10/10 08:38:41;;;;;;;8.35;3.47;;;;;;;9.90;99.01;101018.25;4970856;28;20042;-77
2022/10/10 08:41:32;;;;;;;6.28;3.40;;;;;;;10.01;100.00;101013.75;4959090;28;20043;-77
2022/10/10 08:44:39;;;;;;;7.35;3.72;;;;;;;10.20;98.12;101006.47;4956951;28;20054;-78
2022/10/10 08:47:08;;;;;;;6.28;3.25;;;;;;;10.37;96.52;101008.00;4974120;28;20435;-77
2022/10/10 08:49:51;;;;;;;5.68;3.15;;;;;;;10.52;95.25;100998.13;4973213;28;20069;-77
2022/10/10 08:52:29;;;;;;;4.65;2.72;;;;;;;10.45;97.69;100999.97;4974619;28;20549;-78
2022/10/10 08:54:57;;;;;;;4.78;3.45;;;;;;;10.46;95.02;100996.44;4974535;28;20086;-77
2022/10/10 08:57:47;;;;;;;6.38;3.45;;;;;;;10.53;96.27;100998.09;4973465;28;20093;-77
2022/10/10 09:00:17;;;;;;;5.80;3.60;;;;;;;10.67;96.60;100997.88;5032107;23;20114;-81
2022/10/10 09:02:48;;;;;;;6.35;3.08;;;;;;;10.71;98.44;100996.94;4917634;29;20059;-81
2022/10/10 09:05:41;;;;;;;5.50;3.60;;;;;;;10.84;96.62;100993.19;4914450;29;20051;-82
2022/10/10 09:08:22;;;;;;;5.15;3.17;;;;;;;11.00;96.62;100993.81;4940534;29;20052;-81
2022/10/10 09:11:05;;;;;;;4.60;2.90;;;;;;;11.08;95.83;100983.09;4947010;29;20560;-81
2022/10/10 09:13:37;;;;;;;5.47;3.50;;;;;;;11.22;93.30;100984.59;4917094;29;20040;-81
2022/10/10 09:16:19;;;;;;;5.63;3.20;;;;;;;11.30;95.51;100987.13;4914006;29;20048;-81
2022/10/10 09:18:58;;;;;;;6.82;3.58;;;;;;;11.35;94.69;100973.78;4926064;29;20035;-81
2022/10/10 09:21:29;;;;;;;5.05;3.53;;;;;;;11.35;92.49;100968.50;4921703;29;20039;-79
2022/10/10 09:24:07;;;;;;;7.50;3.22;;;;;;;11.48;94.47;100962.97;4951236;28;20042;-80
2022/10/10 09:26:38;;;;;;;5.15;3.22;;;;;;;11.90;89.26;100959.50;4945346;29;20044;-80
2022/10/10 09:29:37;;;;;;;6.47;3.20;;;;;;;12.33;85.82;100956.78;4921138;29;20122;-79
2022/10/10 09:32:09;;;;;;;4.38;3.45;;;;;;;12.67;81.53;100957.72;4918498;29;20437;-80
2022/10/10 09:34:44;;;;;;;4.93;2.90;;;;;;;12.95;78.39;100954.41;4927655;29;20043;-80
2022/10/10 09:37:14;;;;;;;4.80;3.00;;;;;;;13.01;76.72;100951.56;4936488;29;20087;-80
2022/10/10 09:39:59;;;;;;;4.45;3.03;;;;;;;13.22;76.27;100934.28;4937953;29;20048;-78
2022/10/10 09:42:37;;;;;;;5.00;2.58;;;;;;;13.47;76.10;100940.66;4932013;29;20050;-80
2022/10/10 09:45:27;;;;;;;10.65;3.38;;;;;;;13.64;77.35;100932.22;4911296;29;20134;-79
2022/10/10 09:47:55;;;;;;;6.07;2.60;;;;;;;13.80;72.90;100927.31;4947034;29;20063;-80
2022/10/10 09:50:22;;;;;;;3.80;2.83;;;;;;;13.83;70.27;100929.00;4941007;29;20068;-79
2022/10/10 09:52:50;;;;;;;5.57;2.60;;;;;;;13.87;68.83;100925.34;4930471;29;20047;-80
2022/10/10 09:55:33;;;;;;;6.18;2.75;;;;;;;13.94;68.19;100917.13;4925430;29;20084;-80
2022/10/10 09:58:09;;;;;;;5.97;3.00;;;;;;;13.94;72.97;100927.78;4919674;29;20493;-80
2022/10/10 10:00:36;;;;;;;5.15;2.90;;;;;;;14.12;71.17;100929.00;4916314;29;20313;-79
2022/10/10 10:03:11;;;;;;;4.20;2.95;;;;;;;13.92;69.66;100918.97;4938358;29;20055;-79
2022/10/10 10:05:40;;;;;;;10.10;3.25;;;;;;;13.93;71.10;100920.72;4940443;29;20079;-79
2022/10/10 10:08:28;;;;;;;3.65;3.13;;;;;;;14.05;70.56;100923.03;4921774;29;20052;-80
2022/10/10 10:10:56;;;;;;;5.45;3.45;;;;;;;14.01;69.32;100916.03;4934501;29;20052;-79
2022/10/10 10:13:27;;;;;;;6.65;3.13;;;;;;;14.11;70.09;100918.41;4912046;29;20115;-79
2022/10/10 10:15:59;;;;;;;6.05;3.30;;;;;;;14.23;67.82;100918.06;4930629;29;20032;-79
2022/10/10 10:18:27;;;;;;;5.75;2.75;;;;;;;14.48;67.92;100931.47;4910036;29;20039;-80
2022/10/10 10:21:12;;;;;;;6.05;2.85;;;;;;;14.68;70.18;100917.50;4953524;29;20106;-78
2022/10/10 10:23:55;;;;;;;4.53;3.08;;;;;;;14.86;69.41;100924.88;4913333;29;20076;-78
2022/10/10 10:26:23;;;;;;;5.93;2.75;;;;;;;15.03;65.86;100922.50;4920506;29;20048;-81
2022/10/10 10:28:50;;;;;;;4.38;2.75;;;;;;;15.11;64.30;100919.56;4928317;29;20067;-79
2022/10/10 10:31:29;;;;;;;5.38;3.30;;;;;;;15.14;66.01;100920.34;4939140;29;20112;-80
2022/10/10 10:34:19;;;;;;;3.63;2.47;;;;;;;15.06;64.92;100914.44;4924246;29;20048;-80
2022/10/10 10:36:55;;;;;;;3.03;2.25;;;;;;;15.18;64.15;100921.97;4924219;29;20051;-79
2022/10/10 10:40:03;;;;;;;4.20;2.58;;;;;;;15.04;65.42;100912.72;4922836;29;20091;-79
2022/10/10 10:42:36;;;;;;;4.90;3.08;;;;;;;14.93;66.60;100913.09;4956888;28;20123;-81
2022/10/10 10:45:15;;;;;;;5.68;2.83;;;;;;;15.13;65.81;100910.63;4918748;29;20104;-79
2022/10/10 10:48:03;;;;;;;4.78;2.47;;;;;;;15.39;66.87;100900.84;4934926;29;20039;-79
2022/10/10 10:50:43;;;;;;;4.25;3.45;;;;;;;15.40;63.61;100899.91;4923993;29;20051;-79
2022/10/10 10:53:17;;;;;;;5.18;3.28;;;;;;;15.61;62.85;100896.47;4940960;29;20269;-80
2022/10/10 10:55:54;;;;;;;6.88;2.90;;;;;;;15.54;62.64;100888.72;4927094;29;20094;-80
2022/10/10 10:58:47;;;;;;;10.38;2.70;;;;;;;15.33;63.86;100890.41;4938748;29;20043;-81
2022/10/10 11:01:39;;;;;;;5.00;2.63;;;;;;;15.12;65.08;100882.25;4958130;29;20047;-79
2022/10/10 11:04:49;;;;;;;4.43;2.80;;;;;;;15.08;66.48;100879.78;4929778;29;20067;-80
2022/10/10 11:08:04;;;;;;;5.15;2.42;;;;;;;15.21;67.49;100879.25;4926706;29;20055;-79
2022/10/10 11:10:57;;;;;;;5.95;2.92;;;;;;;15.46;67.36;100875.69;4953692;29;20067;-80
2022/10/10 11:13:30;;;;;;;4.40;2.97;;;;;;;15.53;64.09;100871.03;4943800;29;20051;-80
2022/10/10 11:16:09;;;;;;;5.35;2.83;;;;;;;15.72;64.75;100869.41;4938929;29;20513;-80
2022/10/10 11:19:13;;;;;;;5.07;3.20;;;;;;;15.90;62.28;100867.88;4948545;29;20543;-80
2022/10/10 11:21:45;;;;;;;4.63;2.63;;;;;;;16.08;60.81;100864.47;4941061;29;20036;-79
2022/10/10 11:24:18;;;;;;;6.15;2.80;;;;;;;16.16;63.32;100861.50;4927317;29;20469;-79
2022/10/10 11:26:48;;;;;;;4.57;2.72;;;;;;;16.29;62.89;100863.59;4943379;29;20221;-79
2022/10/10 11:29:19;;;;;;;4.15;2.38;;;;;;;16.24;62.84;100852.25;4930204;29;20052;-79
2022/10/10 11:32:07;;;;;;;3.65;2.50;;;;;;;16.22;60.66;100842.56;4924428;29;20086;-80
2022/10/10 11:34:40;;;;;;;5.90;2.90;;;;;;;16.16;61.24;100846.38;4920633;29;20051;-79
2022/10/10 11:37:13;;;;;;;4.53;2.35;;;;;;;16.07;61.43;100846.75;4931022;29;20088;-79
2022/10/10 11:40:21;;;;;;;5.57;2.65;;;;;;;16.02;62.61;100856.72;4920329;29;20052;-82
2022/10/10 11:42:54;;;;;;;6.40;3.00;;;;;;;15.93;62.43;100857.94;4909521;29;20540;-82